Historique des mesures à Cassis (13260), France
Quotidien Résumé Fevrier 21, 2017 Unités:  Métrique    US   Métrique/US
« Précédent (Jour)
Suivant (Jour) »
Quotidien Hebdomadaire Mensuel Annuel Période au choix
  Maximum: Minimum: Moyenne:
Température: TemperatureC °C 8.8 °C 12.1 °C
Point de rosée: DewpointC °C 2.3 °C 6.5 °C
Humidité: Humidity % 58 % 65 %
Vitesse du vent: 0 km/h 0 km/h 0.6 km/h
Rafales: 0 km/h - -
Vent:- - NW
Pression: PressurehPa hPa 1014.8 hPa -
Précipitations: 0.0 mm    
Historical Graphs
 
 
Mesures pour : Fevrier 21, 2017
Heure Temperature Point de rosée Pression Vent Vitesse du vent Rafales Humidité Pluie (par heure) Conditions
TemperatureC °C DewpointC °C PressurehPa hPa Calm     Humidity % HourlyPrecipMM mm SoftwareType W/m2
00:11 9.6 °C 2.7 °C 1019.9 hPa Calm   2.9 km/h 62 % 0.0 mm open2300-1.11 W/m2
01:10 9.4 °C 2.3 °C 1019.5 hPa Calm     61 % 0.0 mm open2300-1.11 W/m2
02:11 9.4 °C 3.6 °C 1019.5 hPa Calm     67 % 0.0 mm open2300-1.11 W/m2
03:10 9.3 °C 4.3 °C 1019.2 hPa Calm     71 % 0.0 mm open2300-1.11 W/m2
04:11 9.2 °C 4.9 °C 1019.2 hPa Calm   2.9 km/h 75 % 0.0 mm open2300-1.11 W/m2
05:10 9.1 °C 5.2 °C 1018.5 hPa Calm     77 % 0.0 mm open2300-1.11 W/m2
06:11 8.9 °C 5.4 °C 1018.5 hPa Calm     79 % 0.0 mm open2300-1.11 W/m2
07:10 8.8 °C 5.1 °C 1018.5 hPa Calm     78 % 0.0 mm open2300-1.11 W/m2
08:11 9.3 °C 5.8 °C 1018.5 hPa Calm     79 % 0.0 mm open2300-1.11 W/m2
09:10 10.5 °C 6.1 °C 1018.5 hPa Calm     74 % 0.0 mm open2300-1.11 W/m2
10:11 11.9 °C 6.6 °C 1018.5 hPa Calm     70 % 0.0 mm open2300-1.11 W/m2
11:10 13.2 °C 6.9 °C 1018.2 hPa Calm     66 % 0.0 mm open2300-1.11 W/m2
12:11 14.8 °C 7.8 °C 1017.8 hPa Calm   8.9 km/h 63 % 0.0 mm open2300-1.11 W/m2
13:10 15.3 °C 7.6 °C 1017.2 hPa Calm   4.2 km/h 60 % 0.0 mm open2300-1.11 W/m2
14:11 16.3 °C 8.3 °C 1015.8 hPa Calm     59 % 0.0 mm open2300-1.11 W/m2
15:10 16.2 °C 9.6 °C 1015.5 hPa Calm     65 % 0.0 mm open2300-1.11 W/m2
16:11 16.3 °C 9.9 °C 1014.8 hPa Calm     66 % 0.0 mm open2300-1.11 W/m2
17:10 16.8 °C 10.4 °C 1014.8 hPa Calm     66 % 0.0 mm open2300-1.11 W/m2
18:11 16.9 °C 8.6 °C 1014.8 hPa NW 17.4 km/h 17.4 km/h 58 % 0.0 mm open2300-1.11 W/m2
19:11 16.3 °C 8.3 °C 1015.5 hPa Calm   23.8 km/h 59 % 0.0 mm open2300-1.11 W/m2
20:10 14.7 °C 8.4 °C 1015.5 hPa Calm     66 % 0.0 mm open2300-1.11 W/m2
21:11 13.8 °C 8.4 °C 1015.5 hPa Calm   11.6 km/h 70 % 0.0 mm open2300-1.11 W/m2
22:10 13.2 °C 8.1 °C 1015.8 hPa Calm     71 % 0.0 mm open2300-1.11 W/m2
23:11 12.2 °C 7.1 °C 1016.1 hPa Calm     71 % 0.0 mm open2300-1.11 W/m2
Observations météo à CASSIS
WU-History script by Weather Underground - 1 mb